sensor_id;sensor_type;location;lat;lon;timestamp;P1;durP1;ratioP1;P2;durP2;ratioP2
30243;SDS011;61465;53.652;9.792;2022-07-29T00:02:07;2.92;;;1.60;;
30243;SDS011;61465;53.652;9.792;2022-07-29T00:04:34;6.20;;;1.98;;
30243;SDS011;61465;53.652;9.792;2022-07-29T00:07:00;7.10;;;1.80;;
30243;SDS011;61465;53.652;9.792;2022-07-29T00:09:25;6.35;;;2.20;;
30243;SDS011;61465;53.652;9.792;2022-07-29T00:11:51;9.30;;;2.15;;
30243;SDS011;61465;53.652;9.792;2022-07-29T00:14:17;4.78;;;1.73;;
30243;SDS011;61465;53.652;9.792;2022-07-29T00:16:42;3.38;;;1.80;;
30243;SDS011;61465;53.652;9.792;2022-07-29T00:19:08;5.70;;;1.88;;
30243;SDS011;61465;53.652;9.792;2022-07-29T00:21:33;4.28;;;1.90;;
30243;SDS011;61465;53.652;9.792;2022-07-29T00:23:59;4.68;;;2.00;;
30243;SDS011;61465;53.652;9.792;2022-07-29T00:26:24;2.65;;;1.70;;
30243;SDS011;61465;53.652;9.792;2022-07-29T00:28:52;3.25;;;1.60;;
30243;SDS011;61465;53.652;9.792;2022-07-29T00:31:18;2.95;;;2.13;;
30243;SDS011;61465;53.652;9.792;2022-07-29T00:33:43;2.85;;;1.80;;
30243;SDS011;61465;53.652;9.792;2022-07-29T00:36:09;5.90;;;1.90;;
30243;SDS011;61465;53.652;9.792;2022-07-29T00:38:34;2.47;;;1.98;;
30243;SDS011;61465;53.652;9.792;2022-07-29T00:41:00;3.10;;;1.67;;
30243;SDS011;61465;53.652;9.792;2022-07-29T00:43:26;6.22;;;2.10;;
30243;SDS011;61465;53.652;9.792;2022-07-29T00:45:52;4.38;;;2.10;;
30243;SDS011;61465;53.652;9.792;2022-07-29T00:48:17;3.10;;;1.80;;
30243;SDS011;61465;53.652;9.792;2022-07-29T00:50:43;3.63;;;1.67;;
30243;SDS011;61465;53.652;9.792;2022-07-29T00:53:08;4.10;;;2.05;;
30243;SDS011;61465;53.652;9.792;2022-07-29T00:55:36;7.88;;;1.90;;
30243;SDS011;61465;53.652;9.792;2022-07-29T00:58:02;8.90;;;2.67;;
30243;SDS011;61465;53.652;9.792;2022-07-29T01:00:28;9.53;;;2.10;;
30243;SDS011;61465;53.652;9.792;2022-07-29T01:02:54;3.87;;;1.70;;
30243;SDS011;61465;53.652;9.792;2022-07-29T01:05:21;7.18;;;2.10;;
30243;SDS011;61465;53.652;9.792;2022-07-29T01:07:50;4.15;;;1.77;;
30243;SDS011;61465;53.652;9.792;2022-07-29T01:10:18;4.80;;;2.25;;
30243;SDS011;61465;53.652;9.792;2022-07-29T01:15:11;4.53;;;2.28;;
30243;SDS011;61465;53.652;9.792;2022-07-29T01:20:29;2.58;;;1.90;;
30243;SDS011;61465;53.652;9.792;2022-07-29T01:25:58;3.65;;;1.95;;
30243;SDS011;61465;53.652;9.792;2022-07-29T01:31:39;4.82;;;2.17;;
30243;SDS011;61465;53.652;9.792;2022-07-29T01:34:11;2.85;;;1.90;;
30243;SDS011;61465;53.652;9.792;2022-07-29T01:36:47;7.60;;;2.17;;
30243;SDS011;61465;53.652;9.792;2022-07-29T01:39:17;3.40;;;2.45;;
30243;SDS011;61465;53.652;9.792;2022-07-29T01:42:00;6.65;;;2.03;;
30243;SDS011;61465;53.652;9.792;2022-07-29T01:44:34;5.07;;;2.07;;
30243;SDS011;61465;53.652;9.792;2022-07-29T01:47:05;6.45;;;2.35;;
30243;SDS011;61465;53.652;9.792;2022-07-29T01:49:41;5.47;;;2.08;;
30243;SDS011;61465;53.652;9.792;2022-07-29T01:52:19;6.22;;;2.15;;
30243;SDS011;61465;53.652;9.792;2022-07-29T01:54:57;4.35;;;2.33;;
30243;SDS011;61465;53.652;9.792;2022-07-29T01:57:28;5.53;;;2.58;;
30243;SDS011;61465;53.652;9.792;2022-07-29T01:59:56;5.40;;;2.33;;
30243;SDS011;61465;53.652;9.792;2022-07-29T02:02:25;5.03;;;2.38;;
30243;SDS011;61465;53.652;9.792;2022-07-29T02:04:52;5.90;;;2.00;;
30243;SDS011;61465;53.652;9.792;2022-07-29T02:07:20;5.53;;;2.38;;
30243;SDS011;61465;53.652;9.792;2022-07-29T02:09:49;3.47;;;2.10;;
30243;SDS011;61465;53.652;9.792;2022-07-29T02:12:19;5.25;;;2.40;;
30243;SDS011;61465;53.652;9.792;2022-07-29T02:14:47;7.35;;;2.55;;
30243;SDS011;61465;53.652;9.792;2022-07-29T02:17:18;6.38;;;2.20;;
30243;SDS011;61465;53.652;9.792;2022-07-29T02:19:55;5.38;;;2.40;;
30243;SDS011;61465;53.652;9.792;2022-07-29T02:22:23;3.65;;;2.35;;
30243;SDS011;61465;53.652;9.792;2022-07-29T02:24:50;5.40;;;2.17;;
30243;SDS011;61465;53.652;9.792;2022-07-29T02:27:17;5.40;;;2.38;;
30243;SDS011;61465;53.652;9.792;2022-07-29T02:29:45;6.45;;;2.03;;
30243;SDS011;61465;53.652;9.792;2022-07-29T02:32:12;4.50;;;2.33;;
30243;SDS011;61465;53.652;9.792;2022-07-29T02:34:40;4.30;;;2.13;;
30243;SDS011;61465;53.652;9.792;2022-07-29T02:37:08;5.82;;;2.00;;
30243;SDS011;61465;53.652;9.792;2022-07-29T02:39:36;5.55;;;2.05;;
30243;SDS011;61465;53.652;9.792;2022-07-29T02:42:05;4.35;;;2.30;;
30243;SDS011;61465;53.652;9.792;2022-07-29T02:44:34;3.47;;;2.00;;
30243;SDS011;61465;53.652;9.792;2022-07-29T02:47:07;6.82;;;2.58;;
30243;SDS011;61465;53.652;9.792;2022-07-29T02:52:10;4.00;;;2.10;;
30243;SDS011;61465;53.652;9.792;2022-07-29T02:54:47;5.15;;;2.60;;
30243;SDS011;61465;53.652;9.792;2022-07-29T02:57:33;4.93;;;2.15;;
30243;SDS011;61465;53.652;9.792;2022-07-29T03:00:06;4.07;;;2.15;;
30243;SDS011;61465;53.652;9.792;2022-07-29T03:02:34;7.15;;;1.98;;
30243;SDS011;61465;53.652;9.792;2022-07-29T03:05:03;5.00;;;2.20;;
30243;SDS011;61465;53.652;9.792;2022-07-29T03:07:30;5.72;;;2.22;;
30243;SDS011;61465;53.652;9.792;2022-07-29T03:12:23;4.22;;;2.33;;
30243;SDS011;61465;53.652;9.792;2022-07-29T03:14:49;4.10;;;2.42;;
30243;SDS011;61465;53.652;9.792;2022-07-29T03:17:16;3.63;;;1.95;;
30243;SDS011;61465;53.652;9.792;2022-07-29T03:19:41;5.47;;;2.45;;
30243;SDS011;61465;53.652;9.792;2022-07-29T03:22:07;6.60;;;2.85;;
30243;SDS011;61465;53.652;9.792;2022-07-29T03:24:34;7.20;;;2.50;;
30243;SDS011;61465;53.652;9.792;2022-07-29T03:27:01;5.57;;;2.28;;
30243;SDS011;61465;53.652;9.792;2022-07-29T03:31:53;5.38;;;1.88;;
30243;SDS011;61465;53.652;9.792;2022-07-29T03:34:19;3.45;;;1.90;;
30243;SDS011;61465;53.652;9.792;2022-07-29T03:36:44;3.35;;;2.03;;
30243;SDS011;61465;53.652;9.792;2022-07-29T03:39:11;6.93;;;2.28;;
30243;SDS011;61465;53.652;9.792;2022-07-29T03:41:45;9.32;;;2.45;;
30243;SDS011;61465;53.652;9.792;2022-07-29T03:44:13;6.93;;;2.30;;
30243;SDS011;61465;53.652;9.792;2022-07-29T03:49:06;6.72;;;2.10;;
30243;SDS011;61465;53.652;9.792;2022-07-29T03:51:34;6.95;;;2.40;;
30243;SDS011;61465;53.652;9.792;2022-07-29T03:54:03;5.07;;;2.40;;
30243;SDS011;61465;53.652;9.792;2022-07-29T03:56:29;5.18;;;2.75;;
30243;SDS011;61465;53.652;9.792;2022-07-29T03:58:59;8.52;;;2.95;;
30243;SDS011;61465;53.652;9.792;2022-07-29T04:01:27;5.13;;;2.60;;
30243;SDS011;61465;53.652;9.792;2022-07-29T04:03:53;8.70;;;2.50;;
30243;SDS011;61465;53.652;9.792;2022-07-29T04:06:19;6.20;;;2.43;;
30243;SDS011;61465;53.652;9.792;2022-07-29T04:08:45;5.00;;;2.80;;
30243;SDS011;61465;53.652;9.792;2022-07-29T04:11:11;9.15;;;3.20;;
30243;SDS011;61465;53.652;9.792;2022-07-29T04:13:37;4.47;;;2.55;;
30243;SDS011;61465;53.652;9.792;2022-07-29T04:16:03;7.15;;;2.97;;
30243;SDS011;61465;53.652;9.792;2022-07-29T04:18:28;4.50;;;2.53;;
30243;SDS011;61465;53.652;9.792;2022-07-29T04:20:54;5.85;;;2.75;;
30243;SDS011;61465;53.652;9.792;2022-07-29T04:23:19;5.90;;;2.67;;
30243;SDS011;61465;53.652;9.792;2022-07-29T04:25:45;10.90;;;2.40;;
30243;SDS011;61465;53.652;9.792;2022-07-29T04:28:10;5.55;;;2.35;;
30243;SDS011;61465;53.652;9.792;2022-07-29T04:30:36;10.23;;;2.53;;
30243;SDS011;61465;53.652;9.792;2022-07-29T04:33:03;5.50;;;2.60;;
30243;SDS011;61465;53.652;9.792;2022-07-29T04:35:30;3.92;;;1.98;;
30243;SDS011;61465;53.652;9.792;2022-07-29T04:37:59;4.05;;;2.50;;
30243;SDS011;61465;53.652;9.792;2022-07-29T04:40:25;4.97;;;2.37;;
30243;SDS011;61465;53.652;9.792;2022-07-29T04:42:50;7.97;;;3.03;;
30243;SDS011;61465;53.652;9.792;2022-07-29T04:45:16;5.13;;;2.75;;
30243;SDS011;61465;53.652;9.792;2022-07-29T04:47:42;5.05;;;2.58;;
30243;SDS011;61465;53.652;9.792;2022-07-29T04:50:08;6.60;;;2.83;;
30243;SDS011;61465;53.652;9.792;2022-07-29T04:52:34;8.35;;;2.13;;
30243;SDS011;61465;53.652;9.792;2022-07-29T04:55:00;3.72;;;2.58;;
30243;SDS011;61465;53.652;9.792;2022-07-29T04:57:26;5.70;;;2.67;;
30243;SDS011;61465;53.652;9.792;2022-07-29T04:59:51;8.10;;;2.90;;
30243;SDS011;61465;53.652;9.792;2022-07-29T05:02:17;4.90;;;2.40;;
30243;SDS011;61465;53.652;9.792;2022-07-29T05:04:43;5.95;;;2.47;;
30243;SDS011;61465;53.652;9.792;2022-07-29T05:07:08;4.75;;;2.65;;
30243;SDS011;61465;53.652;9.792;2022-07-29T05:09:34;7.30;;;2.72;;
30243;SDS011;61465;53.652;9.792;2022-07-29T05:12:00;6.82;;;2.50;;
30243;SDS011;61465;53.652;9.792;2022-07-29T05:14:25;5.50;;;2.83;;
30243;SDS011;61465;53.652;9.792;2022-07-29T05:16:51;8.75;;;2.85;;
30243;SDS011;61465;53.652;9.792;2022-07-29T05:19:17;6.90;;;2.80;;
30243;SDS011;61465;53.652;9.792;2022-07-29T05:21:44;3.47;;;2.25;;
30243;SDS011;61465;53.652;9.792;2022-07-29T05:24:09;5.97;;;2.55;;
30243;SDS011;61465;53.652;9.792;2022-07-29T05:26:35;5.43;;;2.50;;
30243;SDS011;61465;53.652;9.792;2022-07-29T05:29:01;7.43;;;2.88;;
30243;SDS011;61465;53.652;9.792;2022-07-29T05:31:26;9.70;;;2.72;;
30243;SDS011;61465;53.652;9.792;2022-07-29T05:33:52;6.40;;;2.88;;
30243;SDS011;61465;53.652;9.792;2022-07-29T05:36:18;8.52;;;2.85;;
30243;SDS011;61465;53.652;9.792;2022-07-29T05:38:43;5.63;;;2.78;;
30243;SDS011;61465;53.652;9.792;2022-07-29T05:41:09;5.07;;;2.58;;
30243;SDS011;61465;53.652;9.792;2022-07-29T05:43:35;4.68;;;2.80;;
30243;SDS011;61465;53.652;9.792;2022-07-29T05:46:02;6.80;;;2.97;;
30243;SDS011;61465;53.652;9.792;2022-07-29T05:48:28;6.28;;;2.53;;
30243;SDS011;61465;53.652;9.792;2022-07-29T05:53:21;5.63;;;2.90;;
30243;SDS011;61465;53.652;9.792;2022-07-29T05:55:47;4.47;;;2.60;;
30243;SDS011;61465;53.652;9.792;2022-07-29T05:58:13;7.90;;;2.95;;
30243;SDS011;61465;53.652;9.792;2022-07-29T06:00:38;3.75;;;2.28;;
30243;SDS011;61465;53.652;9.792;2022-07-29T06:03:04;5.15;;;2.50;;
30243;SDS011;61465;53.652;9.792;2022-07-29T06:05:30;4.53;;;2.78;;
30243;SDS011;61465;53.652;9.792;2022-07-29T06:07:56;5.55;;;2.17;;
30243;SDS011;61465;53.652;9.792;2022-07-29T06:10:21;5.07;;;2.63;;
30243;SDS011;61465;53.652;9.792;2022-07-29T06:12:47;7.28;;;2.80;;
30243;SDS011;61465;53.652;9.792;2022-07-29T06:15:13;4.45;;;2.53;;
30243;SDS011;61465;53.652;9.792;2022-07-29T06:17:38;4.93;;;2.55;;
30243;SDS011;61465;53.652;9.792;2022-07-29T06:20:04;5.57;;;2.40;;
30243;SDS011;61465;53.652;9.792;2022-07-29T06:22:30;8.13;;;2.63;;
30243;SDS011;61465;53.652;9.792;2022-07-29T06:24:55;4.32;;;2.28;;
30243;SDS011;61465;53.652;9.792;2022-07-29T06:27:21;5.15;;;2.88;;
30243;SDS011;61465;53.652;9.792;2022-07-29T06:29:48;9.55;;;2.75;;
30243;SDS011;61465;53.652;9.792;2022-07-29T06:32:14;5.22;;;2.70;;
30243;SDS011;61465;53.652;9.792;2022-07-29T06:34:39;6.85;;;2.90;;
30243;SDS011;61465;53.652;9.792;2022-07-29T06:37:06;4.78;;;3.03;;
30243;SDS011;61465;53.652;9.792;2022-07-29T06:39:35;7.82;;;2.42;;
30243;SDS011;61465;53.652;9.792;2022-07-29T06:42:01;5.20;;;2.42;;
30243;SDS011;61465;53.652;9.792;2022-07-29T06:44:31;5.32;;;2.60;;
30243;SDS011;61465;53.652;9.792;2022-07-29T06:46:58;4.95;;;2.50;;
30243;SDS011;61465;53.652;9.792;2022-07-29T06:49:25;8.15;;;2.95;;
30243;SDS011;61465;53.652;9.792;2022-07-29T06:51:52;5.55;;;2.63;;
30243;SDS011;61465;53.652;9.792;2022-07-29T06:54:18;6.18;;;2.58;;
30243;SDS011;61465;53.652;9.792;2022-07-29T06:56:46;5.75;;;2.60;;
30243;SDS011;61465;53.652;9.792;2022-07-29T06:59:15;4.13;;;2.25;;
30243;SDS011;61465;53.652;9.792;2022-07-29T07:01:46;7.10;;;3.03;;
30243;SDS011;61465;53.652;9.792;2022-07-29T07:04:14;3.45;;;2.42;;
30243;SDS011;61465;53.652;9.792;2022-07-29T07:06:40;7.70;;;2.75;;
30243;SDS011;61465;53.652;9.792;2022-07-29T07:09:11;4.75;;;2.20;;
30243;SDS011;61465;53.652;9.792;2022-07-29T07:11:36;6.72;;;2.47;;
30243;SDS011;61465;53.652;9.792;2022-07-29T07:14:02;3.92;;;2.33;;
30243;SDS011;61465;53.652;9.792;2022-07-29T07:16:28;6.93;;;2.03;;
30243;SDS011;61465;53.652;9.792;2022-07-29T07:18:56;5.20;;;2.40;;
30243;SDS011;61465;53.652;9.792;2022-07-29T07:21:22;8.37;;;2.97;;
30243;SDS011;61465;53.652;9.792;2022-07-29T07:23:48;9.60;;;2.40;;
30243;SDS011;61465;53.652;9.792;2022-07-29T07:26:14;6.47;;;2.70;;
30243;SDS011;61465;53.652;9.792;2022-07-29T07:31:06;7.10;;;2.50;;
30243;SDS011;61465;53.652;9.792;2022-07-29T07:33:31;5.25;;;2.35;;
30243;SDS011;61465;53.652;9.792;2022-07-29T07:35:57;7.57;;;3.00;;
30243;SDS011;61465;53.652;9.792;2022-07-29T07:38:23;4.38;;;2.53;;
30243;SDS011;61465;53.652;9.792;2022-07-29T07:40:49;6.25;;;2.47;;
30243;SDS011;61465;53.652;9.792;2022-07-29T07:43:14;5.23;;;2.67;;
30243;SDS011;61465;53.652;9.792;2022-07-29T07:45:40;5.70;;;2.67;;
30243;SDS011;61465;53.652;9.792;2022-07-29T07:48:06;7.90;;;2.83;;
30243;SDS011;61465;53.652;9.792;2022-07-29T07:50:32;8.13;;;2.40;;
30243;SDS011;61465;53.652;9.792;2022-07-29T07:52:57;11.27;;;2.30;;
30243;SDS011;61465;53.652;9.792;2022-07-29T07:55:23;8.80;;;2.47;;
30243;SDS011;61465;53.652;9.792;2022-07-29T07:57:51;6.85;;;2.50;;
30243;SDS011;61465;53.652;9.792;2022-07-29T08:00:16;3.50;;;2.20;;
30243;SDS011;61465;53.652;9.792;2022-07-29T08:02:42;5.50;;;2.67;;
30243;SDS011;61465;53.652;9.792;2022-07-29T08:05:10;6.43;;;2.25;;
30243;SDS011;61465;53.652;9.792;2022-07-29T08:07:37;3.90;;;2.30;;
30243;SDS011;61465;53.652;9.792;2022-07-29T08:10:03;3.37;;;2.10;;
30243;SDS011;61465;53.652;9.792;2022-07-29T08:12:29;7.55;;;2.65;;
30243;SDS011;61465;53.652;9.792;2022-07-29T08:14:55;7.00;;;2.43;;
30243;SDS011;61465;53.652;9.792;2022-07-29T08:17:21;7.70;;;2.63;;
30243;SDS011;61465;53.652;9.792;2022-07-29T08:19:46;4.33;;;2.67;;
30243;SDS011;61465;53.652;9.792;2022-07-29T08:22:13;5.53;;;2.42;;
30243;SDS011;61465;53.652;9.792;2022-07-29T08:24:39;4.87;;;2.47;;
30243;SDS011;61465;53.652;9.792;2022-07-29T08:27:07;5.63;;;2.60;;
30243;SDS011;61465;53.652;9.792;2022-07-29T08:29:36;5.32;;;2.65;;
30243;SDS011;61465;53.652;9.792;2022-07-29T08:32:02;7.13;;;2.77;;
30243;SDS011;61465;53.652;9.792;2022-07-29T08:34:28;5.88;;;2.78;;
30243;SDS011;61465;53.652;9.792;2022-07-29T08:36:54;3.97;;;2.57;;
30243;SDS011;61465;53.652;9.792;2022-07-29T08:39:20;7.82;;;2.75;;
30243;SDS011;61465;53.652;9.792;2022-07-29T08:41:46;6.17;;;2.13;;
30243;SDS011;61465;53.652;9.792;2022-07-29T08:44:12;8.33;;;2.67;;
30243;SDS011;61465;53.652;9.792;2022-07-29T08:46:40;3.95;;;2.10;;
30243;SDS011;61465;53.652;9.792;2022-07-29T08:49:06;5.97;;;2.50;;
30243;SDS011;61465;53.652;9.792;2022-07-29T08:51:32;5.93;;;2.67;;
30243;SDS011;61465;53.652;9.792;2022-07-29T08:54:00;4.57;;;2.33;;
30243;SDS011;61465;53.652;9.792;2022-07-29T08:56:26;6.15;;;2.20;;
30243;SDS011;61465;53.652;9.792;2022-07-29T08:58:53;3.97;;;2.30;;
30243;SDS011;61465;53.652;9.792;2022-07-29T09:01:23;7.53;;;2.10;;
30243;SDS011;61465;53.652;9.792;2022-07-29T09:03:54;4.65;;;1.95;;
30243;SDS011;61465;53.652;9.792;2022-07-29T09:06:21;6.90;;;2.72;;
30243;SDS011;61465;53.652;9.792;2022-07-29T09:08:51;3.28;;;1.90;;
30243;SDS011;61465;53.652;9.792;2022-07-29T09:11:17;3.60;;;2.10;;
30243;SDS011;61465;53.652;9.792;2022-07-29T09:13:43;4.82;;;2.33;;
30243;SDS011;61465;53.652;9.792;2022-07-29T09:16:08;4.90;;;2.30;;
30243;SDS011;61465;53.652;9.792;2022-07-29T09:18:38;6.15;;;2.22;;
30243;SDS011;61465;53.652;9.792;2022-07-29T09:21:06;5.35;;;1.88;;
30243;SDS011;61465;53.652;9.792;2022-07-29T09:24:08;5.15;;;2.10;;
30243;SDS011;61465;53.652;9.792;2022-07-29T09:26:39;5.40;;;2.15;;
30243;SDS011;61465;53.652;9.792;2022-07-29T09:30:00;7.18;;;2.20;;
30243;SDS011;61465;53.652;9.792;2022-07-29T09:32:59;6.03;;;2.65;;
30243;SDS011;61465;53.652;9.792;2022-07-29T09:35:27;5.13;;;2.28;;
30243;SDS011;61465;53.652;9.792;2022-07-29T09:38:09;3.22;;;2.08;;
30243;SDS011;61465;53.652;9.792;2022-07-29T09:40:39;3.30;;;2.08;;
30243;SDS011;61465;53.652;9.792;2022-07-29T09:43:11;4.82;;;2.13;;
30243;SDS011;61465;53.652;9.792;2022-07-29T09:45:38;5.22;;;1.80;;
30243;SDS011;61465;53.652;9.792;2022-07-29T09:48:15;3.90;;;1.60;;
30243;SDS011;61465;53.652;9.792;2022-07-29T09:50:45;5.10;;;1.52;;
30243;SDS011;61465;53.652;9.792;2022-07-29T09:53:29;5.43;;;1.92;;
30243;SDS011;61465;53.652;9.792;2022-07-29T09:55:56;4.50;;;2.30;;
30243;SDS011;61465;53.652;9.792;2022-07-29T09:58:21;3.00;;;1.87;;
30243;SDS011;61465;53.652;9.792;2022-07-29T10:00:48;3.10;;;2.08;;
30243;SDS011;61465;53.652;9.792;2022-07-29T10:03:16;5.47;;;1.90;;
30243;SDS011;61465;53.652;9.792;2022-07-29T10:05:42;6.93;;;2.00;;
30243;SDS011;61465;53.652;9.792;2022-07-29T10:08:09;5.00;;;1.67;;
30243;SDS011;61465;53.652;9.792;2022-07-29T10:10:38;4.95;;;1.90;;
30243;SDS011;61465;53.652;9.792;2022-07-29T10:13:10;2.90;;;1.95;;
30243;SDS011;61465;53.652;9.792;2022-07-29T10:15:39;4.90;;;2.08;;
30243;SDS011;61465;53.652;9.792;2022-07-29T10:18:08;2.42;;;1.55;;
30243;SDS011;61465;53.652;9.792;2022-07-29T10:20:35;3.58;;;1.75;;
30243;SDS011;61465;53.652;9.792;2022-07-29T10:23:01;3.63;;;1.77;;
30243;SDS011;61465;53.652;9.792;2022-07-29T10:25:28;3.38;;;2.17;;
30243;SDS011;61465;53.652;9.792;2022-07-29T10:27:54;3.53;;;2.00;;
30243;SDS011;61465;53.652;9.792;2022-07-29T10:30:20;4.65;;;1.88;;
30243;SDS011;61465;53.652;9.792;2022-07-29T10:35:43;3.60;;;1.90;;
30243;SDS011;61465;53.652;9.792;2022-07-29T10:44:02;2.60;;;1.55;;
30243;SDS011;61465;53.652;9.792;2022-07-29T10:46:37;5.13;;;1.75;;
30243;SDS011;61465;53.652;9.792;2022-07-29T10:51:53;4.63;;;1.88;;
30243;SDS011;61465;53.652;9.792;2022-07-29T10:59:44;3.88;;;2.25;;
30243;SDS011;61465;53.652;9.792;2022-07-29T11:07:31;5.07;;;2.20;;
30243;SDS011;61465;53.652;9.792;2022-07-29T11:15:08;6.83;;;2.30;;
30243;SDS011;61465;53.652;9.792;2022-07-29T11:18:15;4.05;;;2.13;;
30243;SDS011;61465;53.652;9.792;2022-07-29T11:20:44;3.42;;;1.90;;
30243;SDS011;61465;53.652;9.792;2022-07-29T11:25:43;3.88;;;2.10;;
30243;SDS011;61465;53.652;9.792;2022-07-29T11:28:13;13.38;;;2.25;;
30243;SDS011;61465;53.652;9.792;2022-07-29T11:30:47;5.93;;;2.38;;
30243;SDS011;61465;53.652;9.792;2022-07-29T11:33:28;10.65;;;1.75;;
30243;SDS011;61465;53.652;9.792;2022-07-29T11:36:10;3.97;;;1.80;;
30243;SDS011;61465;53.652;9.792;2022-07-29T11:38:37;4.97;;;1.60;;
30243;SDS011;61465;53.652;9.792;2022-07-29T11:43:58;3.35;;;1.58;;
30243;SDS011;61465;53.652;9.792;2022-07-29T11:49:08;3.97;;;1.80;;
30243;SDS011;61465;53.652;9.792;2022-07-29T11:51:35;4.25;;;1.70;;
30243;SDS011;61465;53.652;9.792;2022-07-29T11:54:02;3.33;;;1.33;;
30243;SDS011;61465;53.652;9.792;2022-07-29T11:56:30;1.77;;;1.42;;
30243;SDS011;61465;53.652;9.792;2022-07-29T11:59:04;3.25;;;1.90;;
30243;SDS011;61465;53.652;9.792;2022-07-29T12:01:31;3.30;;;1.90;;
30243;SDS011;61465;53.652;9.792;2022-07-29T12:04:06;2.95;;;1.50;;
30243;SDS011;61465;53.652;9.792;2022-07-29T12:06:33;5.95;;;1.60;;
30243;SDS011;61465;53.652;9.792;2022-07-29T12:11:25;3.72;;;1.52;;
30243;SDS011;61465;53.652;9.792;2022-07-29T12:13:51;4.45;;;1.70;;
30243;SDS011;61465;53.652;9.792;2022-07-29T12:16:17;6.70;;;1.63;;
30243;SDS011;61465;53.652;9.792;2022-07-29T12:19:05;4.60;;;1.52;;
30243;SDS011;61465;53.652;9.792;2022-07-29T12:21:43;6.50;;;1.85;;
30243;SDS011;61465;53.652;9.792;2022-07-29T12:24:10;5.78;;;1.90;;
30243;SDS011;61465;53.652;9.792;2022-07-29T12:26:35;3.33;;;1.73;;
30243;SDS011;61465;53.652;9.792;2022-07-29T12:29:16;7.90;;;1.70;;
30243;SDS011;61465;53.652;9.792;2022-07-29T12:31:43;5.82;;;1.55;;
30243;SDS011;61465;53.652;9.792;2022-07-29T12:34:13;5.18;;;1.65;;
30243;SDS011;61465;53.652;9.792;2022-07-29T12:36:40;4.28;;;1.73;;
30243;SDS011;61465;53.652;9.792;2022-07-29T12:39:07;9.43;;;1.80;;
30243;SDS011;61465;53.652;9.792;2022-07-29T12:41:34;3.60;;;1.80;;
30243;SDS011;61465;53.652;9.792;2022-07-29T12:44:00;10.57;;;2.13;;
30243;SDS011;61465;53.652;9.792;2022-07-29T12:46:25;4.90;;;1.83;;
30243;SDS011;61465;53.652;9.792;2022-07-29T12:48:52;5.10;;;1.65;;
30243;SDS011;61465;53.652;9.792;2022-07-29T12:51:28;3.53;;;1.70;;
30243;SDS011;61465;53.652;9.792;2022-07-29T12:54:02;7.25;;;1.58;;
30243;SDS011;61465;53.652;9.792;2022-07-29T12:56:29;4.30;;;1.73;;
30243;SDS011;61465;53.652;9.792;2022-07-29T12:58:55;3.33;;;1.60;;
30243;SDS011;61465;53.652;9.792;2022-07-29T13:01:21;3.57;;;1.80;;
30243;SDS011;61465;53.652;9.792;2022-07-29T13:03:53;5.10;;;1.60;;
30243;SDS011;61465;53.652;9.792;2022-07-29T13:09:04;4.30;;;1.75;;
30243;SDS011;61465;53.652;9.792;2022-07-29T13:11:39;6.30;;;1.92;;
30243;SDS011;61465;53.652;9.792;2022-07-29T13:14:05;8.80;;;1.63;;
30243;SDS011;61465;53.652;9.792;2022-07-29T13:16:33;4.43;;;1.70;;
30243;SDS011;61465;53.652;9.792;2022-07-29T13:19:09;5.53;;;1.73;;
30243;SDS011;61465;53.652;9.792;2022-07-29T13:21:36;5.10;;;1.67;;
30243;SDS011;61465;53.652;9.792;2022-07-29T13:24:03;4.45;;;1.52;;
30243;SDS011;61465;53.652;9.792;2022-07-29T13:26:32;6.38;;;1.95;;
30243;SDS011;61465;53.652;9.792;2022-07-29T13:28:58;6.78;;;1.67;;
30243;SDS011;61465;53.652;9.792;2022-07-29T13:31:24;5.27;;;2.07;;
30243;SDS011;61465;53.652;9.792;2022-07-29T13:33:49;5.67;;;1.90;;
30243;SDS011;61465;53.652;9.792;2022-07-29T13:36:15;3.23;;;1.53;;
30243;SDS011;61465;53.652;9.792;2022-07-29T13:38:41;5.30;;;1.75;;
30243;SDS011;61465;53.652;9.792;2022-07-29T13:41:07;5.17;;;2.00;;
30243;SDS011;61465;53.652;9.792;2022-07-29T13:43:32;6.80;;;1.93;;
30243;SDS011;61465;53.652;9.792;2022-07-29T13:45:58;8.20;;;1.97;;
30243;SDS011;61465;53.652;9.792;2022-07-29T13:48:23;2.83;;;1.73;;
30243;SDS011;61465;53.652;9.792;2022-07-29T13:50:49;7.20;;;1.90;;
30243;SDS011;61465;53.652;9.792;2022-07-29T13:53:14;3.10;;;1.93;;
30243;SDS011;61465;53.652;9.792;2022-07-29T13:55:40;3.53;;;1.90;;
30243;SDS011;61465;53.652;9.792;2022-07-29T13:58:05;8.87;;;2.43;;
30243;SDS011;61465;53.652;9.792;2022-07-29T14:00:31;4.30;;;1.60;;
30243;SDS011;61465;53.652;9.792;2022-07-29T14:02:57;7.03;;;2.37;;
30243;SDS011;61465;53.652;9.792;2022-07-29T14:05:22;7.73;;;2.43;;
30243;SDS011;61465;53.652;9.792;2022-07-29T14:07:48;4.67;;;1.83;;
30243;SDS011;61465;53.652;9.792;2022-07-29T14:10:13;5.03;;;2.53;;
30243;SDS011;61465;53.652;9.792;2022-07-29T14:12:39;5.30;;;1.90;;
30243;SDS011;61465;53.652;9.792;2022-07-29T14:15:06;8.50;;;2.10;;
30243;SDS011;61465;53.652;9.792;2022-07-29T14:17:32;5.97;;;2.33;;
30243;SDS011;61465;53.652;9.792;2022-07-29T14:19:58;4.87;;;2.00;;
30243;SDS011;61465;53.652;9.792;2022-07-29T14:22:23;3.40;;;1.90;;
30243;SDS011;61465;53.652;9.792;2022-07-29T14:24:50;7.10;;;2.17;;
30243;SDS011;61465;53.652;9.792;2022-07-29T14:27:15;7.10;;;2.27;;
30243;SDS011;61465;53.652;9.792;2022-07-29T14:29:41;6.27;;;2.23;;
30243;SDS011;61465;53.652;9.792;2022-07-29T14:32:07;4.67;;;2.07;;
30243;SDS011;61465;53.652;9.792;2022-07-29T14:34:34;6.13;;;2.40;;
30243;SDS011;61465;53.652;9.792;2022-07-29T14:37:03;6.93;;;2.05;;
30243;SDS011;61465;53.652;9.792;2022-07-29T14:39:32;4.60;;;2.35;;
30243;SDS011;61465;53.652;9.792;2022-07-29T14:44:24;4.20;;;2.20;;
30243;SDS011;61465;53.652;9.792;2022-07-29T14:46:55;6.85;;;2.10;;
30243;SDS011;61465;53.652;9.792;2022-07-29T14:49:25;3.53;;;1.95;;
30243;SDS011;61465;53.652;9.792;2022-07-29T14:51:51;2.72;;;2.00;;
30243;SDS011;61465;53.652;9.792;2022-07-29T14:54:17;4.47;;;2.40;;
30243;SDS011;61465;53.652;9.792;2022-07-29T14:56:42;6.23;;;2.10;;
30243;SDS011;61465;53.652;9.792;2022-07-29T14:59:08;7.50;;;2.40;;
30243;SDS011;61465;53.652;9.792;2022-07-29T15:01:34;7.87;;;2.23;;
30243;SDS011;61465;53.652;9.792;2022-07-29T15:04:05;7.73;;;2.03;;
30243;SDS011;61465;53.652;9.792;2022-07-29T15:06:32;9.13;;;2.50;;
30243;SDS011;61465;53.652;9.792;2022-07-29T15:08:58;5.55;;;2.20;;
30243;SDS011;61465;53.652;9.792;2022-07-29T15:11:24;8.67;;;2.33;;
30243;SDS011;61465;53.652;9.792;2022-07-29T15:13:50;6.17;;;2.10;;
30243;SDS011;61465;53.652;9.792;2022-07-29T15:16:16;5.97;;;2.00;;
30243;SDS011;61465;53.652;9.792;2022-07-29T15:18:41;8.93;;;2.40;;
30243;SDS011;61465;53.652;9.792;2022-07-29T15:21:07;4.23;;;2.23;;
30243;SDS011;61465;53.652;9.792;2022-07-29T15:23:33;8.53;;;2.20;;
30243;SDS011;61465;53.652;9.792;2022-07-29T15:26:01;3.20;;;2.10;;
30243;SDS011;61465;53.652;9.792;2022-07-29T15:28:27;4.25;;;1.90;;
30243;SDS011;61465;53.652;9.792;2022-07-29T15:30:53;4.90;;;1.80;;
30243;SDS011;61465;53.652;9.792;2022-07-29T15:33:19;4.43;;;1.90;;
30243;SDS011;61465;53.652;9.792;2022-07-29T15:35:44;4.60;;;2.10;;
30243;SDS011;61465;53.652;9.792;2022-07-29T15:38:10;3.30;;;1.93;;
30243;SDS011;61465;53.652;9.792;2022-07-29T15:40:36;4.60;;;2.10;;
30243;SDS011;61465;53.652;9.792;2022-07-29T15:43:06;9.57;;;2.15;;
30243;SDS011;61465;53.652;9.792;2022-07-29T15:45:36;3.42;;;1.80;;
30243;SDS011;61465;53.652;9.792;2022-07-29T15:48:06;4.68;;;1.90;;
30243;SDS011;61465;53.652;9.792;2022-07-29T15:50:32;3.22;;;1.67;;
30243;SDS011;61465;53.652;9.792;2022-07-29T15:52:58;7.95;;;2.00;;
30243;SDS011;61465;53.652;9.792;2022-07-29T15:55:24;15.40;;;2.07;;
30243;SDS011;61465;53.652;9.792;2022-07-29T15:57:50;3.93;;;2.07;;
30243;SDS011;61465;53.652;9.792;2022-07-29T16:00:16;4.27;;;2.10;;
30243;SDS011;61465;53.652;9.792;2022-07-29T16:02:42;4.53;;;2.13;;